sensor_id;sensor_type;location;lat;lon;timestamp;P1;durP1;ratioP1;P2;durP2;ratioP2
78322;SDS011;67583;50.616;-3.404;2023-02-03T21:47:40;4.05;;;2.45;;
78322;SDS011;67583;50.616;-3.404;2023-02-03T21:50:39;4.78;;;2.35;;
78322;SDS011;67583;50.616;-3.404;2023-02-03T21:55:34;3.50;;;2.42;;
78322;SDS011;67583;50.616;-3.404;2023-02-03T21:58:03;7.63;;;2.35;;
78322;SDS011;67583;50.616;-3.404;2023-02-03T22:00:42;4.18;;;2.25;;
78322;SDS011;67583;50.616;-3.404;2023-02-03T22:03:32;3.15;;;1.83;;
78322;SDS011;67583;50.616;-3.404;2023-02-03T22:09:00;5.05;;;2.15;;
78322;SDS011;67583;50.616;-3.404;2023-02-03T22:11:27;4.32;;;2.65;;
78322;SDS011;67583;50.616;-3.404;2023-02-03T22:13:53;3.45;;;2.05;;
78322;SDS011;67583;50.616;-3.404;2023-02-03T22:16:20;3.50;;;2.25;;
78322;SDS011;67583;50.616;-3.404;2023-02-03T22:18:46;3.63;;;2.15;;
78322;SDS011;67583;50.616;-3.404;2023-02-03T22:21:12;6.05;;;2.40;;
78322;SDS011;67583;50.616;-3.404;2023-02-03T22:23:38;3.20;;;2.30;;
78322;SDS011;67583;50.616;-3.404;2023-02-03T22:26:04;3.47;;;2.03;;
78322;SDS011;67583;50.616;-3.404;2023-02-03T22:28:31;3.55;;;2.05;;
78322;SDS011;67583;50.616;-3.404;2023-02-03T22:30:56;2.70;;;2.00;;
78322;SDS011;67583;50.616;-3.404;2023-02-03T22:33:23;6.05;;;2.15;;
78322;SDS011;67583;50.616;-3.404;2023-02-03T22:35:50;5.55;;;2.53;;
78322;SDS011;67583;50.616;-3.404;2023-02-03T22:38:17;4.63;;;1.95;;
78322;SDS011;67583;50.616;-3.404;2023-02-03T22:40:43;4.78;;;1.90;;
78322;SDS011;67583;50.616;-3.404;2023-02-03T22:43:12;7.55;;;2.08;;
78322;SDS011;67583;50.616;-3.404;2023-02-03T22:45:37;3.55;;;2.13;;
78322;SDS011;67583;50.616;-3.404;2023-02-03T22:54:38;2.20;;;1.38;;
78322;SDS011;67583;50.616;-3.404;2023-02-03T22:57:04;2.22;;;1.13;;
78322;SDS011;67583;50.616;-3.404;2023-02-03T22:59:31;2.85;;;1.40;;
78322;SDS011;67583;50.616;-3.404;2023-02-03T23:01:56;4.32;;;1.40;;
78322;SDS011;67583;50.616;-3.404;2023-02-03T23:04:22;4.47;;;1.52;;
78322;SDS011;67583;50.616;-3.404;2023-02-03T23:06:47;2.47;;;1.40;;
78322;SDS011;67583;50.616;-3.404;2023-02-03T23:09:13;3.28;;;2.22;;
78322;SDS011;67583;50.616;-3.404;2023-02-03T23:11:38;2.40;;;1.50;;
78322;SDS011;67583;50.616;-3.404;2023-02-03T23:14:03;2.08;;;1.63;;
78322;SDS011;67583;50.616;-3.404;2023-02-03T23:16:29;4.32;;;1.38;;
78322;SDS011;67583;50.616;-3.404;2023-02-03T23:18:55;5.03;;;1.40;;
78322;SDS011;67583;50.616;-3.404;2023-02-03T23:21:20;2.25;;;1.40;;
78322;SDS011;67583;50.616;-3.404;2023-02-03T23:23:46;1.73;;;1.17;;
78322;SDS011;67583;50.616;-3.404;2023-02-03T23:28:38;3.05;;;1.50;;
78322;SDS011;67583;50.616;-3.404;2023-02-03T23:31:05;6.90;;;1.95;;
78322;SDS011;67583;50.616;-3.404;2023-02-03T23:33:33;3.20;;;1.52;;
78322;SDS011;67583;50.616;-3.404;2023-02-03T23:35:59;6.50;;;1.65;;
78322;SDS011;67583;50.616;-3.404;2023-02-03T23:38:25;1.63;;;1.23;;
78322;SDS011;67583;50.616;-3.404;2023-02-03T23:40:51;5.63;;;1.60;;
78322;SDS011;67583;50.616;-3.404;2023-02-03T23:43:19;2.55;;;1.30;;
78322;SDS011;67583;50.616;-3.404;2023-02-03T23:45:45;2.40;;;1.40;;
78322;SDS011;67583;50.616;-3.404;2023-02-03T23:48:10;3.60;;;1.20;;
78322;SDS011;67583;50.616;-3.404;2023-02-03T23:53:02;3.60;;;1.92;;
78322;SDS011;67583;50.616;-3.404;2023-02-03T23:55:28;3.97;;;1.60;;
78322;SDS011;67583;50.616;-3.404;2023-02-03T23:57:55;1.85;;;1.13;;
